sensor_id;sensor_type;location;lat;lon;timestamp;P1;durP1;ratioP1;P2;durP2;ratioP2
76039;SDS011;64736;50.462;4.850;2023-02-10T00:01:17;29.73;;;17.98;;
76039;SDS011;64736;50.462;4.850;2023-02-10T00:03:44;29.17;;;19.15;;
76039;SDS011;64736;50.462;4.850;2023-02-10T00:06:10;33.22;;;18.67;;
76039;SDS011;64736;50.462;4.850;2023-02-10T00:08:38;27.00;;;18.30;;
76039;SDS011;64736;50.462;4.850;2023-02-10T00:11:05;28.98;;;19.27;;
76039;SDS011;64736;50.462;4.850;2023-02-10T00:13:33;28.10;;;17.88;;
76039;SDS011;64736;50.462;4.850;2023-02-10T00:15:59;30.00;;;18.77;;
76039;SDS011;64736;50.462;4.850;2023-02-10T00:18:27;31.13;;;19.05;;
76039;SDS011;64736;50.462;4.850;2023-02-10T00:20:53;27.83;;;19.50;;
76039;SDS011;64736;50.462;4.850;2023-02-10T00:23:20;32.90;;;20.77;;
76039;SDS011;64736;50.462;4.850;2023-02-10T00:25:45;36.13;;;21.77;;
76039;SDS011;64736;50.462;4.850;2023-02-10T00:28:11;31.15;;;19.55;;
76039;SDS011;64736;50.462;4.850;2023-02-10T00:30:37;31.42;;;19.35;;
76039;SDS011;64736;50.462;4.850;2023-02-10T00:33:05;30.42;;;19.23;;
76039;SDS011;64736;50.462;4.850;2023-02-10T00:35:30;28.45;;;19.48;;
76039;SDS011;64736;50.462;4.850;2023-02-10T00:37:56;33.67;;;20.75;;
76039;SDS011;64736;50.462;4.850;2023-02-10T00:40:22;33.35;;;21.63;;
76039;SDS011;64736;50.462;4.850;2023-02-10T00:42:48;34.17;;;20.98;;
76039;SDS011;64736;50.462;4.850;2023-02-10T00:45:13;28.02;;;18.17;;
76039;SDS011;64736;50.462;4.850;2023-02-10T00:47:39;34.25;;;20.23;;
76039;SDS011;64736;50.462;4.850;2023-02-10T00:50:05;36.13;;;23.65;;
76039;SDS011;64736;50.462;4.850;2023-02-10T00:52:31;38.05;;;21.92;;
76039;SDS011;64736;50.462;4.850;2023-02-10T00:54:57;32.92;;;19.13;;
76039;SDS011;64736;50.462;4.850;2023-02-10T00:57:23;31.38;;;19.38;;
76039;SDS011;64736;50.462;4.850;2023-02-10T00:59:48;33.03;;;20.55;;
76039;SDS011;64736;50.462;4.850;2023-02-10T01:02:14;33.85;;;20.20;;
76039;SDS011;64736;50.462;4.850;2023-02-10T01:04:40;31.40;;;20.20;;
76039;SDS011;64736;50.462;4.850;2023-02-10T01:07:06;32.65;;;21.38;;
76039;SDS011;64736;50.462;4.850;2023-02-10T01:09:32;33.50;;;21.23;;
76039;SDS011;64736;50.462;4.850;2023-02-10T01:11:57;36.45;;;20.52;;
76039;SDS011;64736;50.462;4.850;2023-02-10T01:14:23;34.30;;;21.20;;
76039;SDS011;64736;50.462;4.850;2023-02-10T01:16:49;34.05;;;21.30;;
76039;SDS011;64736;50.462;4.850;2023-02-10T01:19:15;33.33;;;21.13;;
76039;SDS011;64736;50.462;4.850;2023-02-10T01:21:41;30.35;;;19.70;;
76039;SDS011;64736;50.462;4.850;2023-02-10T01:24:07;33.08;;;22.95;;
76039;SDS011;64736;50.462;4.850;2023-02-10T01:26:33;39.67;;;22.42;;
76039;SDS011;64736;50.462;4.850;2023-02-10T01:28:59;34.63;;;21.00;;
76039;SDS011;64736;50.462;4.850;2023-02-10T01:31:25;36.03;;;21.75;;
76039;SDS011;64736;50.462;4.850;2023-02-10T01:33:52;30.00;;;19.15;;
76039;SDS011;64736;50.462;4.850;2023-02-10T01:36:19;33.40;;;20.45;;
76039;SDS011;64736;50.462;4.850;2023-02-10T01:38:48;33.42;;;19.15;;
76039;SDS011;64736;50.462;4.850;2023-02-10T01:41:15;31.42;;;19.13;;
76039;SDS011;64736;50.462;4.850;2023-02-10T01:46:43;34.63;;;19.98;;
76039;SDS011;64736;50.462;4.850;2023-02-10T01:49:10;37.85;;;23.13;;
76039;SDS011;64736;50.462;4.850;2023-02-10T01:52:02;30.00;;;19.92;;
76039;SDS011;64736;50.462;4.850;2023-02-10T01:57:08;35.15;;;20.15;;
76039;SDS011;64736;50.462;4.850;2023-02-10T01:59:35;33.42;;;20.42;;
76039;SDS011;64736;50.462;4.850;2023-02-10T02:02:02;32.25;;;18.63;;
76039;SDS011;64736;50.462;4.850;2023-02-10T02:07:29;32.58;;;20.67;;
76039;SDS011;64736;50.462;4.850;2023-02-10T02:09:59;38.25;;;20.95;;
76039;SDS011;64736;50.462;4.850;2023-02-10T02:12:38;31.77;;;21.83;;
76039;SDS011;64736;50.462;4.850;2023-02-10T02:15:08;37.08;;;22.85;;
76039;SDS011;64736;50.462;4.850;2023-02-10T02:17:55;35.05;;;21.65;;
76039;SDS011;64736;50.462;4.850;2023-02-10T02:23:33;36.78;;;20.08;;
76039;SDS011;64736;50.462;4.850;2023-02-10T02:28:40;31.25;;;21.98;;
76039;SDS011;64736;50.462;4.850;2023-02-10T02:37:17;34.38;;;20.30;;
76039;SDS011;64736;50.462;4.850;2023-02-10T02:39:53;37.65;;;22.20;;
76039;SDS011;64736;50.462;4.850;2023-02-10T02:42:21;33.28;;;19.90;;
76039;SDS011;64736;50.462;4.850;2023-02-10T02:45:03;34.08;;;20.45;;
76039;SDS011;64736;50.462;4.850;2023-02-10T02:55:41;34.10;;;20.17;;
76039;SDS011;64736;50.462;4.850;2023-02-10T02:58:20;29.65;;;19.02;;
76039;SDS011;64736;50.462;4.850;2023-02-10T03:00:51;34.85;;;20.58;;
76039;SDS011;64736;50.462;4.850;2023-02-10T03:03:20;31.40;;;18.73;;
76039;SDS011;64736;50.462;4.850;2023-02-10T03:05:46;30.40;;;19.60;;
76039;SDS011;64736;50.462;4.850;2023-02-10T03:08:12;34.10;;;21.95;;
76039;SDS011;64736;50.462;4.850;2023-02-10T03:10:37;27.35;;;19.77;;
76039;SDS011;64736;50.462;4.850;2023-02-10T03:13:03;32.63;;;20.27;;
76039;SDS011;64736;50.462;4.850;2023-02-10T03:15:29;31.50;;;19.63;;
76039;SDS011;64736;50.462;4.850;2023-02-10T03:17:56;31.33;;;19.33;;
76039;SDS011;64736;50.462;4.850;2023-02-10T03:20:22;32.03;;;19.63;;
76039;SDS011;64736;50.462;4.850;2023-02-10T03:22:48;35.13;;;20.10;;
76039;SDS011;64736;50.462;4.850;2023-02-10T03:25:13;30.38;;;19.83;;
76039;SDS011;64736;50.462;4.850;2023-02-10T03:27:39;29.25;;;18.95;;
76039;SDS011;64736;50.462;4.850;2023-02-10T03:30:05;34.20;;;21.13;;
76039;SDS011;64736;50.462;4.850;2023-02-10T03:32:31;28.02;;;17.45;;
76039;SDS011;64736;50.462;4.850;2023-02-10T03:34:57;29.50;;;18.27;;
76039;SDS011;64736;50.462;4.850;2023-02-10T03:37:22;31.95;;;20.48;;
76039;SDS011;64736;50.462;4.850;2023-02-10T03:39:49;31.33;;;18.50;;
76039;SDS011;64736;50.462;4.850;2023-02-10T03:42:15;36.40;;;20.27;;
76039;SDS011;64736;50.462;4.850;2023-02-10T03:44:41;32.83;;;19.40;;
76039;SDS011;64736;50.462;4.850;2023-02-10T03:47:06;32.92;;;19.77;;
76039;SDS011;64736;50.462;4.850;2023-02-10T03:49:32;37.88;;;22.23;;
76039;SDS011;64736;50.462;4.850;2023-02-10T03:51:57;28.63;;;18.35;;
76039;SDS011;64736;50.462;4.850;2023-02-10T03:54:23;32.47;;;19.55;;
76039;SDS011;64736;50.462;4.850;2023-02-10T03:56:49;29.75;;;18.15;;
76039;SDS011;64736;50.462;4.850;2023-02-10T03:59:15;26.98;;;18.67;;
76039;SDS011;64736;50.462;4.850;2023-02-10T04:01:40;29.48;;;19.25;;
76039;SDS011;64736;50.462;4.850;2023-02-10T04:04:06;30.55;;;18.05;;
76039;SDS011;64736;50.462;4.850;2023-02-10T04:06:32;31.40;;;18.38;;
76039;SDS011;64736;50.462;4.850;2023-02-10T04:08:57;30.90;;;18.05;;
76039;SDS011;64736;50.462;4.850;2023-02-10T04:11:23;33.33;;;18.90;;
76039;SDS011;64736;50.462;4.850;2023-02-10T04:13:48;31.77;;;18.95;;
76039;SDS011;64736;50.462;4.850;2023-02-10T04:16:15;29.08;;;18.50;;
76039;SDS011;64736;50.462;4.850;2023-02-10T04:18:41;32.45;;;19.80;;
76039;SDS011;64736;50.462;4.850;2023-02-10T04:21:08;29.05;;;17.75;;
76039;SDS011;64736;50.462;4.850;2023-02-10T04:23:36;34.80;;;18.38;;
76039;SDS011;64736;50.462;4.850;2023-02-10T04:26:02;32.35;;;18.60;;
76039;SDS011;64736;50.462;4.850;2023-02-10T04:28:28;29.35;;;18.40;;
76039;SDS011;64736;50.462;4.850;2023-02-10T04:30:55;32.75;;;17.92;;
76039;SDS011;64736;50.462;4.850;2023-02-10T04:33:22;34.13;;;19.65;;
76039;SDS011;64736;50.462;4.850;2023-02-10T04:35:50;34.83;;;20.05;;
76039;SDS011;64736;50.462;4.850;2023-02-10T04:38:17;32.72;;;18.58;;
76039;SDS011;64736;50.462;4.850;2023-02-10T04:40:43;37.53;;;20.05;;
76039;SDS011;64736;50.462;4.850;2023-02-10T04:43:09;32.75;;;20.77;;
76039;SDS011;64736;50.462;4.850;2023-02-10T04:45:37;33.15;;;20.05;;
76039;SDS011;64736;50.462;4.850;2023-02-10T04:48:03;34.50;;;19.02;;
76039;SDS011;64736;50.462;4.850;2023-02-10T04:50:29;31.02;;;19.98;;
76039;SDS011;64736;50.462;4.850;2023-02-10T04:52:55;33.92;;;19.48;;
76039;SDS011;64736;50.462;4.850;2023-02-10T04:55:21;32.90;;;19.90;;
76039;SDS011;64736;50.462;4.850;2023-02-10T04:57:46;33.63;;;18.63;;
76039;SDS011;64736;50.462;4.850;2023-02-10T05:00:12;34.70;;;20.17;;
76039;SDS011;64736;50.462;4.850;2023-02-10T05:02:39;34.38;;;19.33;;
76039;SDS011;64736;50.462;4.850;2023-02-10T05:05:06;30.55;;;19.10;;
76039;SDS011;64736;50.462;4.850;2023-02-10T05:07:32;31.83;;;19.63;;
76039;SDS011;64736;50.462;4.850;2023-02-10T05:09:58;39.60;;;26.25;;
76039;SDS011;64736;50.462;4.850;2023-02-10T05:12:24;39.50;;;21.02;;
76039;SDS011;64736;50.462;4.850;2023-02-10T05:14:49;30.73;;;18.25;;
76039;SDS011;64736;50.462;4.850;2023-02-10T05:17:15;33.78;;;20.45;;
76039;SDS011;64736;50.462;4.850;2023-02-10T05:19:41;163.30;;;63.22;;
76039;SDS011;64736;50.462;4.850;2023-02-10T05:22:06;79.57;;;38.28;;
76039;SDS011;64736;50.462;4.850;2023-02-10T05:24:32;39.65;;;22.83;;
76039;SDS011;64736;50.462;4.850;2023-02-10T05:26:58;34.67;;;20.35;;
76039;SDS011;64736;50.462;4.850;2023-02-10T05:29:24;32.42;;;19.95;;
76039;SDS011;64736;50.462;4.850;2023-02-10T05:31:49;34.60;;;19.60;;
76039;SDS011;64736;50.462;4.850;2023-02-10T05:34:15;30.05;;;18.95;;
76039;SDS011;64736;50.462;4.850;2023-02-10T05:36:41;32.45;;;20.17;;
76039;SDS011;64736;50.462;4.850;2023-02-10T05:39:09;34.60;;;22.67;;
76039;SDS011;64736;50.462;4.850;2023-02-10T05:41:52;35.63;;;19.88;;
76039;SDS011;64736;50.462;4.850;2023-02-10T05:44:22;35.45;;;21.70;;
76039;SDS011;64736;50.462;4.850;2023-02-10T05:46:48;35.53;;;22.10;;
76039;SDS011;64736;50.462;4.850;2023-02-10T05:49:15;38.47;;;22.67;;
76039;SDS011;64736;50.462;4.850;2023-02-10T05:51:41;36.15;;;23.08;;
76039;SDS011;64736;50.462;4.850;2023-02-10T05:54:07;32.78;;;20.30;;
76039;SDS011;64736;50.462;4.850;2023-02-10T05:56:33;34.00;;;20.10;;
76039;SDS011;64736;50.462;4.850;2023-02-10T05:58:59;36.53;;;20.45;;
76039;SDS011;64736;50.462;4.850;2023-02-10T06:01:25;36.20;;;22.23;;
76039;SDS011;64736;50.462;4.850;2023-02-10T06:03:51;31.95;;;19.10;;
76039;SDS011;64736;50.462;4.850;2023-02-10T06:06:17;32.38;;;19.92;;
76039;SDS011;64736;50.462;4.850;2023-02-10T06:08:42;33.10;;;21.15;;
76039;SDS011;64736;50.462;4.850;2023-02-10T06:11:08;33.65;;;21.33;;
76039;SDS011;64736;50.462;4.850;2023-02-10T06:13:34;32.60;;;20.63;;
76039;SDS011;64736;50.462;4.850;2023-02-10T06:16:00;31.73;;;19.98;;
76039;SDS011;64736;50.462;4.850;2023-02-10T06:18:29;33.55;;;21.15;;
76039;SDS011;64736;50.462;4.850;2023-02-10T06:20:56;32.28;;;19.55;;
76039;SDS011;64736;50.462;4.850;2023-02-10T06:23:22;34.35;;;21.60;;
76039;SDS011;64736;50.462;4.850;2023-02-10T06:25:48;35.17;;;20.05;;
76039;SDS011;64736;50.462;4.850;2023-02-10T06:28:14;34.53;;;20.88;;
76039;SDS011;64736;50.462;4.850;2023-02-10T06:30:40;32.88;;;19.88;;
76039;SDS011;64736;50.462;4.850;2023-02-10T06:33:06;32.72;;;20.13;;
76039;SDS011;64736;50.462;4.850;2023-02-10T06:35:32;34.08;;;20.42;;
76039;SDS011;64736;50.462;4.850;2023-02-10T06:37:58;31.75;;;19.27;;
76039;SDS011;64736;50.462;4.850;2023-02-10T06:40:24;36.85;;;22.30;;
76039;SDS011;64736;50.462;4.850;2023-02-10T06:42:49;37.90;;;23.65;;
76039;SDS011;64736;50.462;4.850;2023-02-10T06:45:15;35.30;;;21.27;;
76039;SDS011;64736;50.462;4.850;2023-02-10T06:47:41;35.67;;;21.85;;
76039;SDS011;64736;50.462;4.850;2023-02-10T06:50:07;33.67;;;21.40;;
76039;SDS011;64736;50.462;4.850;2023-02-10T06:52:34;33.08;;;20.40;;
76039;SDS011;64736;50.462;4.850;2023-02-10T06:55:03;37.95;;;24.92;;
76039;SDS011;64736;50.462;4.850;2023-02-10T06:57:30;34.92;;;21.35;;
76039;SDS011;64736;50.462;4.850;2023-02-10T06:59:56;30.77;;;19.95;;
76039;SDS011;64736;50.462;4.850;2023-02-10T07:02:24;34.33;;;21.00;;
76039;SDS011;64736;50.462;4.850;2023-02-10T07:04:50;35.35;;;21.38;;
76039;SDS011;64736;50.462;4.850;2023-02-10T07:07:16;34.05;;;21.67;;
76039;SDS011;64736;50.462;4.850;2023-02-10T07:09:41;35.25;;;20.75;;
76039;SDS011;64736;50.462;4.850;2023-02-10T07:12:07;34.38;;;20.98;;
76039;SDS011;64736;50.462;4.850;2023-02-10T07:14:33;34.15;;;20.58;;
76039;SDS011;64736;50.462;4.850;2023-02-10T07:16:59;33.40;;;21.58;;
76039;SDS011;64736;50.462;4.850;2023-02-10T07:19:25;37.65;;;22.65;;
76039;SDS011;64736;50.462;4.850;2023-02-10T07:21:51;36.40;;;21.10;;
76039;SDS011;64736;50.462;4.850;2023-02-10T07:24:17;41.83;;;22.20;;
76039;SDS011;64736;50.462;4.850;2023-02-10T07:26:43;35.88;;;22.25;;
76039;SDS011;64736;50.462;4.850;2023-02-10T07:29:09;32.03;;;21.08;;
76039;SDS011;64736;50.462;4.850;2023-02-10T07:31:34;39.33;;;22.58;;
76039;SDS011;64736;50.462;4.850;2023-02-10T07:34:01;39.58;;;22.90;;
76039;SDS011;64736;50.462;4.850;2023-02-10T07:36:27;36.70;;;21.00;;
76039;SDS011;64736;50.462;4.850;2023-02-10T07:38:53;35.30;;;21.92;;
76039;SDS011;64736;50.462;4.850;2023-02-10T07:41:19;37.67;;;23.00;;
76039;SDS011;64736;50.462;4.850;2023-02-10T07:43:44;38.53;;;21.60;;
76039;SDS011;64736;50.462;4.850;2023-02-10T07:46:10;35.97;;;22.25;;
76039;SDS011;64736;50.462;4.850;2023-02-10T07:48:36;35.08;;;20.92;;
76039;SDS011;64736;50.462;4.850;2023-02-10T07:51:02;39.50;;;23.98;;
76039;SDS011;64736;50.462;4.850;2023-02-10T07:53:27;37.38;;;23.10;;
76039;SDS011;64736;50.462;4.850;2023-02-10T07:55:53;40.72;;;22.38;;
76039;SDS011;64736;50.462;4.850;2023-02-10T07:58:19;37.10;;;22.52;;
76039;SDS011;64736;50.462;4.850;2023-02-10T08:00:45;40.90;;;22.02;;
76039;SDS011;64736;50.462;4.850;2023-02-10T08:03:13;47.53;;;23.85;;
76039;SDS011;64736;50.462;4.850;2023-02-10T08:05:40;44.42;;;24.27;;
76039;SDS011;64736;50.462;4.850;2023-02-10T08:08:13;43.22;;;25.75;;
76039;SDS011;64736;50.462;4.850;2023-02-10T08:10:38;46.65;;;25.48;;
76039;SDS011;64736;50.462;4.850;2023-02-10T08:13:04;44.63;;;25.05;;
76039;SDS011;64736;50.462;4.850;2023-02-10T08:15:30;42.38;;;25.38;;
76039;SDS011;64736;50.462;4.850;2023-02-10T08:17:57;36.33;;;22.50;;
76039;SDS011;64736;50.462;4.850;2023-02-10T08:20:24;40.47;;;23.73;;
76039;SDS011;64736;50.462;4.850;2023-02-10T08:22:53;41.67;;;24.50;;
76039;SDS011;64736;50.462;4.850;2023-02-10T08:25:20;35.80;;;23.45;;
76039;SDS011;64736;50.462;4.850;2023-02-10T08:27:46;41.55;;;25.58;;
76039;SDS011;64736;50.462;4.850;2023-02-10T08:30:11;42.67;;;24.88;;
76039;SDS011;64736;50.462;4.850;2023-02-10T08:32:37;52.88;;;29.30;;
76039;SDS011;64736;50.462;4.850;2023-02-10T08:35:03;44.60;;;26.02;;
76039;SDS011;64736;50.462;4.850;2023-02-10T08:37:30;47.60;;;27.20;;
76039;SDS011;64736;50.462;4.850;2023-02-10T08:39:56;46.85;;;27.92;;
76039;SDS011;64736;50.462;4.850;2023-02-10T08:42:23;49.67;;;30.38;;
76039;SDS011;64736;50.462;4.850;2023-02-10T08:44:50;44.15;;;25.38;;
76039;SDS011;64736;50.462;4.850;2023-02-10T08:47:16;43.97;;;28.60;;
76039;SDS011;64736;50.462;4.850;2023-02-10T08:49:41;54.22;;;31.58;;
76039;SDS011;64736;50.462;4.850;2023-02-10T08:52:08;48.00;;;28.23;;
76039;SDS011;64736;50.462;4.850;2023-02-10T08:54:34;47.30;;;27.27;;
76039;SDS011;64736;50.462;4.850;2023-02-10T08:57:00;48.17;;;28.02;;
76039;SDS011;64736;50.462;4.850;2023-02-10T08:59:26;39.97;;;25.30;;
76039;SDS011;64736;50.462;4.850;2023-02-10T09:01:52;39.70;;;24.48;;
76039;SDS011;64736;50.462;4.850;2023-02-10T09:04:18;43.03;;;25.58;;
76039;SDS011;64736;50.462;4.850;2023-02-10T09:06:44;42.08;;;25.48;;
76039;SDS011;64736;50.462;4.850;2023-02-10T09:09:13;39.65;;;22.70;;
76039;SDS011;64736;50.462;4.850;2023-02-10T09:11:41;44.30;;;25.40;;
76039;SDS011;64736;50.462;4.850;2023-02-10T09:14:08;45.35;;;26.75;;
76039;SDS011;64736;50.462;4.850;2023-02-10T09:16:34;45.05;;;26.73;;
76039;SDS011;64736;50.462;4.850;2023-02-10T09:19:00;43.10;;;26.02;;
76039;SDS011;64736;50.462;4.850;2023-02-10T09:21:26;44.28;;;26.30;;
76039;SDS011;64736;50.462;4.850;2023-02-10T09:23:52;51.25;;;27.60;;
76039;SDS011;64736;50.462;4.850;2023-02-10T09:26:18;44.40;;;26.75;;
76039;SDS011;64736;50.462;4.850;2023-02-10T09:28:44;49.50;;;27.65;;
76039;SDS011;64736;50.462;4.850;2023-02-10T09:31:14;48.58;;;27.17;;
76039;SDS011;64736;50.462;4.850;2023-02-10T09:36:13;43.45;;;24.38;;
76039;SDS011;64736;50.462;4.850;2023-02-10T09:38:41;47.08;;;25.73;;
76039;SDS011;64736;50.462;4.850;2023-02-10T09:54:46;38.33;;;22.17;;
76039;SDS011;64736;50.462;4.850;2023-02-10T09:57:32;41.45;;;22.58;;
76039;SDS011;64736;50.462;4.850;2023-02-10T10:00:04;41.55;;;23.63;;
76039;SDS011;64736;50.462;4.850;2023-02-10T10:02:35;43.63;;;22.02;;
76039;SDS011;64736;50.462;4.850;2023-02-10T10:05:23;39.88;;;22.30;;
76039;SDS011;64736;50.462;4.850;2023-02-10T10:08:29;37.90;;;21.98;;
76039;SDS011;64736;50.462;4.850;2023-02-10T10:11:04;40.08;;;22.02;;
76039;SDS011;64736;50.462;4.850;2023-02-10T10:13:40;44.00;;;23.63;;
76039;SDS011;64736;50.462;4.850;2023-02-10T10:16:09;42.47;;;22.85;;
76039;SDS011;64736;50.462;4.850;2023-02-10T10:19:06;39.38;;;22.58;;
76039;SDS011;64736;50.462;4.850;2023-02-10T10:21:54;40.72;;;23.67;;
76039;SDS011;64736;50.462;4.850;2023-02-10T10:35:26;41.42;;;22.50;;
76039;SDS011;64736;50.462;4.850;2023-02-10T10:38:07;41.13;;;23.30;;
76039;SDS011;64736;50.462;4.850;2023-02-10T10:40:48;41.05;;;22.10;;
76039;SDS011;64736;50.462;4.850;2023-02-10T10:43:20;42.00;;;21.33;;
76039;SDS011;64736;50.462;4.850;2023-02-10T10:45:52;42.65;;;22.33;;
76039;SDS011;64736;50.462;4.850;2023-02-10T10:48:31;38.25;;;19.77;;
76039;SDS011;64736;50.462;4.850;2023-02-10T10:50:58;39.45;;;22.85;;
76039;SDS011;64736;50.462;4.850;2023-02-10T10:56:07;39.30;;;21.13;;
76039;SDS011;64736;50.462;4.850;2023-02-10T10:58:47;32.00;;;19.60;;
76039;SDS011;64736;50.462;4.850;2023-02-10T11:01:15;34.15;;;20.25;;
76039;SDS011;64736;50.462;4.850;2023-02-10T11:03:42;33.63;;;20.20;;
76039;SDS011;64736;50.462;4.850;2023-02-10T11:06:12;33.97;;;20.10;;
76039;SDS011;64736;50.462;4.850;2023-02-10T11:08:44;36.15;;;21.15;;
76039;SDS011;64736;50.462;4.850;2023-02-10T11:11:19;36.05;;;19.75;;
76039;SDS011;64736;50.462;4.850;2023-02-10T11:13:56;34.22;;;19.77;;
76039;SDS011;64736;50.462;4.850;2023-02-10T11:16:23;38.40;;;20.02;;
76039;SDS011;64736;50.462;4.850;2023-02-10T11:21:31;33.65;;;19.65;;
76039;SDS011;64736;50.462;4.850;2023-02-10T11:23:59;34.42;;;19.15;;
76039;SDS011;64736;50.462;4.850;2023-02-10T11:26:25;35.83;;;20.13;;
76039;SDS011;64736;50.462;4.850;2023-02-10T11:28:53;27.17;;;17.67;;
76039;SDS011;64736;50.462;4.850;2023-02-10T11:33:59;38.67;;;18.95;;
76039;SDS011;64736;50.462;4.850;2023-02-10T11:36:46;29.25;;;17.25;;
76039;SDS011;64736;50.462;4.850;2023-02-10T11:39:33;31.02;;;16.70;;
76039;SDS011;64736;50.462;4.850;2023-02-10T11:47:19;27.55;;;15.60;;
76039;SDS011;64736;50.462;4.850;2023-02-10T11:49:46;29.90;;;16.73;;
76039;SDS011;64736;50.462;4.850;2023-02-10T11:52:14;29.65;;;17.70;;
76039;SDS011;64736;50.462;4.850;2023-02-10T11:54:42;34.33;;;18.25;;
76039;SDS011;64736;50.462;4.850;2023-02-10T12:03:05;30.17;;;17.15;;
76039;SDS011;64736;50.462;4.850;2023-02-10T12:08:45;28.65;;;16.98;;
76039;SDS011;64736;50.462;4.850;2023-02-10T12:11:35;29.15;;;17.33;;
76039;SDS011;64736;50.462;4.850;2023-02-10T12:14:26;27.38;;;16.92;;
76039;SDS011;64736;50.462;4.850;2023-02-10T12:20:02;31.85;;;17.92;;
76039;SDS011;64736;50.462;4.850;2023-02-10T12:22:44;29.08;;;17.02;;
76039;SDS011;64736;50.462;4.850;2023-02-10T12:28:08;30.98;;;17.90;;
76039;SDS011;64736;50.462;4.850;2023-02-10T12:33:45;28.40;;;16.13;;
76039;SDS011;64736;50.462;4.850;2023-02-10T12:36:21;30.02;;;15.18;;
76039;SDS011;64736;50.462;4.850;2023-02-10T12:38:56;27.35;;;16.27;;
76039;SDS011;64736;50.462;4.850;2023-02-10T12:44:28;28.70;;;15.30;;
76039;SDS011;64736;50.462;4.850;2023-02-10T12:52:49;29.67;;;16.77;;
76039;SDS011;64736;50.462;4.850;2023-02-10T12:55:24;41.70;;;17.73;;
76039;SDS011;64736;50.462;4.850;2023-02-10T12:58:10;35.10;;;17.52;;
76039;SDS011;64736;50.462;4.850;2023-02-10T13:00:54;36.10;;;19.33;;
76039;SDS011;64736;50.462;4.850;2023-02-10T13:05:57;42.75;;;20.27;;
76039;SDS011;64736;50.462;4.850;2023-02-10T13:08:41;39.70;;;19.52;;
76039;SDS011;64736;50.462;4.850;2023-02-10T13:11:16;36.03;;;20.55;;
76039;SDS011;64736;50.462;4.850;2023-02-10T13:13:45;31.70;;;16.58;;
76039;SDS011;64736;50.462;4.850;2023-02-10T13:16:16;31.48;;;17.23;;
76039;SDS011;64736;50.462;4.850;2023-02-10T13:21:37;29.30;;;18.05;;
76039;SDS011;64736;50.462;4.850;2023-02-10T13:24:24;35.50;;;20.23;;
76039;SDS011;64736;50.462;4.850;2023-02-10T13:32:33;34.95;;;20.05;;
76039;SDS011;64736;50.462;4.850;2023-02-10T13:35:04;29.92;;;17.92;;
76039;SDS011;64736;50.462;4.850;2023-02-10T13:37:45;27.48;;;16.33;;
76039;SDS011;64736;50.462;4.850;2023-02-10T13:40:18;29.92;;;17.50;;
76039;SDS011;64736;50.462;4.850;2023-02-10T13:42:57;38.60;;;21.60;;
76039;SDS011;64736;50.462;4.850;2023-02-10T13:45:32;42.08;;;20.52;;
76039;SDS011;64736;50.462;4.850;2023-02-10T13:48:02;29.42;;;17.98;;
76039;SDS011;64736;50.462;4.850;2023-02-10T13:50:41;37.92;;;19.33;;
76039;SDS011;64736;50.462;4.850;2023-02-10T13:58:57;39.35;;;18.77;;
76039;SDS011;64736;50.462;4.850;2023-02-10T14:01:42;30.52;;;19.27;;
76039;SDS011;64736;50.462;4.850;2023-02-10T14:06:43;30.20;;;17.60;;
76039;SDS011;64736;50.462;4.850;2023-02-10T14:12:18;28.50;;;16.13;;
76039;SDS011;64736;50.462;4.850;2023-02-10T14:14:49;28.60;;;16.65;;
76039;SDS011;64736;50.462;4.850;2023-02-10T14:17:25;27.58;;;13.85;;
76039;SDS011;64736;50.462;4.850;2023-02-10T14:19:57;27.33;;;13.82;;
76039;SDS011;64736;50.462;4.850;2023-02-10T14:22:34;26.30;;;14.52;;
76039;SDS011;64736;50.462;4.850;2023-02-10T14:25:19;25.83;;;13.48;;
76039;SDS011;64736;50.462;4.850;2023-02-10T14:27:49;27.98;;;15.40;;
76039;SDS011;64736;50.462;4.850;2023-02-10T14:30:21;28.80;;;15.70;;
76039;SDS011;64736;50.462;4.850;2023-02-10T14:32:51;33.83;;;16.02;;
76039;SDS011;64736;50.462;4.850;2023-02-10T14:35:20;32.78;;;17.50;;
76039;SDS011;64736;50.462;4.850;2023-02-10T14:37:49;29.73;;;17.52;;
76039;SDS011;64736;50.462;4.850;2023-02-10T14:40:17;30.75;;;16.02;;
76039;SDS011;64736;50.462;4.850;2023-02-10T14:42:44;26.25;;;12.32;;
76039;SDS011;64736;50.462;4.850;2023-02-10T14:45:23;32.00;;;15.45;;
76039;SDS011;64736;50.462;4.850;2023-02-10T14:47:52;27.65;;;12.73;;
76039;SDS011;64736;50.462;4.850;2023-02-10T14:50:24;27.80;;;14.90;;
76039;SDS011;64736;50.462;4.850;2023-02-10T14:52:52;30.77;;;15.90;;
76039;SDS011;64736;50.462;4.850;2023-02-10T14:55:23;30.60;;;15.27;;
76039;SDS011;64736;50.462;4.850;2023-02-10T14:58:04;31.50;;;15.80;;
76039;SDS011;64736;50.462;4.850;2023-02-10T15:01:04;34.22;;;15.07;;
76039;SDS011;64736;50.462;4.850;2023-02-10T15:03:39;29.52;;;15.30;;
76039;SDS011;64736;50.462;4.850;2023-02-10T15:06:06;31.05;;;14.90;;
76039;SDS011;64736;50.462;4.850;2023-02-10T15:11:02;30.38;;;15.10;;
76039;SDS011;64736;50.462;4.850;2023-02-10T15:13:39;37.35;;;19.45;;
76039;SDS011;64736;50.462;4.850;2023-02-10T15:16:10;38.72;;;17.58;;
76039;SDS011;64736;50.462;4.850;2023-02-10T15:18:41;30.65;;;16.77;;
76039;SDS011;64736;50.462;4.850;2023-02-10T15:21:23;30.13;;;15.20;;
76039;SDS011;64736;50.462;4.850;2023-02-10T15:23:57;27.75;;;15.10;;
76039;SDS011;64736;50.462;4.850;2023-02-10T15:26:27;30.92;;;15.75;;
76039;SDS011;64736;50.462;4.850;2023-02-10T15:29:05;28.88;;;14.85;;
76039;SDS011;64736;50.462;4.850;2023-02-10T15:31:36;26.08;;;14.88;;
76039;SDS011;64736;50.462;4.850;2023-02-10T15:34:12;29.92;;;15.90;;
76039;SDS011;64736;50.462;4.850;2023-02-10T15:36:50;30.05;;;16.40;;
76039;SDS011;64736;50.462;4.850;2023-02-10T15:39:28;29.98;;;16.02;;
76039;SDS011;64736;50.462;4.850;2023-02-10T15:42:01;32.75;;;15.35;;
76039;SDS011;64736;50.462;4.850;2023-02-10T15:49:42;33.55;;;17.67;;
76039;SDS011;64736;50.462;4.850;2023-02-10T15:52:51;29.75;;;16.67;;
76039;SDS011;64736;50.462;4.850;2023-02-10T15:55:01;30.52;;;18.20;;
76039;SDS011;64736;50.462;4.850;2023-02-10T15:57:29;32.53;;;16.75;;
76039;SDS011;64736;50.462;4.850;2023-02-10T15:59:55;28.88;;;16.35;;
76039;SDS011;64736;50.462;4.850;2023-02-10T16:02:21;29.85;;;16.48;;
76039;SDS011;64736;50.462;4.850;2023-02-10T16:07:20;33.45;;;16.83;;
76039;SDS011;64736;50.462;4.850;2023-02-10T16:09:52;35.10;;;16.98;;
76039;SDS011;64736;50.462;4.850;2023-02-10T16:12:19;36.15;;;17.92;;
76039;SDS011;64736;50.462;4.850;2023-02-10T16:14:45;32.83;;;18.23;;
76039;SDS011;64736;50.462;4.850;2023-02-10T16:17:15;29.40;;;17.13;;
76039;SDS011;64736;50.462;4.850;2023-02-10T16:19:46;37.70;;;18.95;;
76039;SDS011;64736;50.462;4.850;2023-02-10T16:22:13;37.78;;;18.65;;
76039;SDS011;64736;50.462;4.850;2023-02-10T16:24:39;30.48;;;16.55;;
76039;SDS011;64736;50.462;4.850;2023-02-10T16:27:05;35.67;;;17.75;;
76039;SDS011;64736;50.462;4.850;2023-02-10T16:29:31;31.95;;;17.10;;
76039;SDS011;64736;50.462;4.850;2023-02-10T16:31:57;32.00;;;17.17;;
76039;SDS011;64736;50.462;4.850;2023-02-10T16:34:25;36.65;;;19.38;;
76039;SDS011;64736;50.462;4.850;2023-02-10T16:36:55;29.80;;;17.40;;
76039;SDS011;64736;50.462;4.850;2023-02-10T16:39:22;33.22;;;17.13;;
76039;SDS011;64736;50.462;4.850;2023-02-10T16:41:49;35.92;;;18.15;;